Time;durP1;ratioP1;P1;durP2;ratioP2;P2;SDS_P1;SDS_P2;PMS_P1;PMS_P2;Temp;Humidity;BMP_temperature;BMP_pressure;BME280_temperature;BME280_humidity;BME280_pressure;Samples;Min_cycle;Max_cycle;Signal;HPM_P1;HPM_P2
2022/03/08 00:01:14;;;;;;;8.17;6.50;;;;;;;-2.18;70.90;98301.41;6180085;28;20224;-67
2022/03/08 00:04:16;;;;;;;10.50;6.73;;;;;;;-2.28;71.87;98295.56;6201216;28;20259;-66
2022/03/08 00:07:19;;;;;;;8.33;7.00;;;;;;;-2.36;71.61;98302.63;6178355;28;20260;-67
2022/03/08 00:10:21;;;;;;;9.70;7.60;;;;;;;-2.42;72.12;98299.31;6177617;28;20240;-67
2022/03/08 00:13:23;;;;;;;10.67;6.83;;;;;;;-2.46;72.48;98305.41;6177472;28;20236;-67
2022/03/08 00:16:25;;;;;;;9.77;6.97;;;;;;;-2.47;72.71;98298.53;6190062;28;20232;-67
2022/03/08 00:19:27;;;;;;;11.50;7.50;;;;;;;-2.51;72.48;98299.50;6189434;28;20225;-67
2022/03/08 00:22:30;;;;;;;11.83;7.37;;;;;;;-2.53;72.92;98302.09;6179412;28;20275;-66
2022/03/08 00:25:32;;;;;;;8.80;7.10;;;;;;;-2.59;72.83;98304.78;6177320;28;20226;-67
2022/03/08 00:28:34;;;;;;;9.73;7.33;;;;;;;-2.64;72.75;98301.44;6196920;28;20224;-68
2022/03/08 00:31:39;;;;;;;9.63;6.80;;;;;;;-2.69;72.83;98298.06;6180930;28;20321;-67
2022/03/08 00:34:42;;;;;;;10.97;7.47;;;;;;;-2.72;73.00;98301.59;6182689;28;20245;-67
2022/03/08 00:37:47;;;;;;;8.77;6.60;;;;;;;-2.78;73.25;98299.09;6182413;28;20319;-67
2022/03/08 00:40:50;;;;;;;10.60;7.13;;;;;;;-2.81;72.97;98291.41;6182634;28;20372;-67
2022/03/08 00:43:52;;;;;;;11.53;8.07;;;;;;;-2.84;73.15;98293.19;6197714;28;20235;-67
2022/03/08 00:46:55;;;;;;;11.57;6.93;;;;;;;-2.81;73.54;98303.47;6186847;28;20727;-67
2022/03/08 00:49:57;;;;;;;11.17;6.93;;;;;;;-2.88;73.60;98301.84;6197926;28;20236;-67
2022/03/08 00:53:00;;;;;;;10.60;6.90;;;;;;;-2.97;73.13;98297.69;6196566;28;20734;-67
2022/03/08 00:56:02;;;;;;;9.07;6.47;;;;;;;-3.02;73.66;98299.53;6197787;28;20247;-67
2022/03/08 00:59:05;;;;;;;7.40;5.87;;;;;;;-3.09;73.80;98301.34;6196113;28;20680;-68
2022/03/08 01:02:07;;;;;;;8.50;6.43;;;;;;;-3.14;74.45;98294.56;6182395;28;20233;-68
2022/03/08 01:05:10;;;;;;;7.10;5.93;;;;;;;-3.20;74.07;98299.81;6196711;28;20637;-66
2022/03/08 01:08:13;;;;;;;11.40;6.90;;;;;;;-3.30;74.54;98298.25;6181922;28;20240;-66
2022/03/08 01:11:15;;;;;;;13.37;7.37;;;;;;;-3.41;74.75;98299.28;6181999;28;20741;-67
2022/03/08 01:14:17;;;;;;;10.43;7.50;;;;;;;-3.47;74.25;98293.34;6181822;28;20291;-67
2022/03/08 01:17:19;;;;;;;10.37;7.37;;;;;;;-3.51;74.17;98294.28;6194777;28;20742;-67
2022/03/08 01:20:22;;;;;;;11.43;7.70;;;;;;;-3.56;74.88;98294.31;6181778;28;20229;-67
2022/03/08 01:23:24;;;;;;;15.13;7.73;;;;;;;-3.60;74.89;98289.25;6199748;28;20261;-67
2022/03/08 01:26:26;;;;;;;10.00;7.20;;;;;;;-3.62;75.22;98291.84;6197074;28;20229;-67
2022/03/08 01:29:30;;;;;;;9.30;7.13;;;;;;;-3.66;74.49;98290.19;6180747;28;20327;-68
2022/03/08 01:32:33;;;;;;;12.97;7.53;;;;;;;-3.73;75.03;98304.91;6180450;28;20648;-67
2022/03/08 01:35:36;;;;;;;13.20;7.83;;;;;;;-3.76;75.34;98294.59;6179981;28;20234;-67
2022/03/08 01:38:38;;;;;;;10.87;6.57;;;;;;;-3.79;76.07;98294.63;6179862;28;20245;-67
2022/03/08 01:41:40;;;;;;;10.70;7.50;;;;;;;-3.83;75.99;98286.97;6195673;28;20345;-69
2022/03/08 01:44:44;;;;;;;10.83;7.13;;;;;;;-3.84;75.56;98285.28;6194987;28;20251;-68
2022/03/08 01:47:47;;;;;;;8.80;6.60;;;;;;;-3.89;75.94;98290.47;6202480;28;20237;-67
2022/03/08 01:50:49;;;;;;;10.27;7.63;;;;;;;-3.94;75.76;98283.69;6195981;28;20222;-67
2022/03/08 01:53:51;;;;;;;14.40;7.70;;;;;;;-3.97;75.90;98289.72;6179778;28;20327;-66
2022/03/08 01:56:53;;;;;;;11.53;7.60;;;;;;;-4.02;75.73;98286.38;6180815;28;20240;-66
2022/03/08 01:59:55;;;;;;;11.47;7.40;;;;;;;-4.07;75.70;98284.72;6180505;28;20351;-66
2022/03/08 02:02:58;;;;;;;10.07;7.07;;;;;;;-4.14;76.12;98283.94;6180502;28;20241;-67
2022/03/08 02:06:00;;;;;;;10.60;7.67;;;;;;;-4.22;76.21;98283.19;6180944;28;20264;-66
2022/03/08 02:09:04;;;;;;;13.23;7.87;;;;;;;-4.27;76.09;98280.66;6178599;28;20707;-67
2022/03/08 02:12:06;;;;;;;14.67;8.20;;;;;;;-4.29;76.11;98273.84;6179676;28;20283;-67
2022/03/08 02:15:19;;;;;;;11.13;7.77;;;;;;;-4.33;76.70;98272.16;6196469;28;20246;-67
2022/03/08 02:18:21;;;;;;;13.23;7.87;;;;;;;-4.37;76.68;98266.19;6180499;28;20269;-68
2022/03/08 02:21:23;;;;;;;9.43;7.43;;;;;;;-4.39;76.13;98272.25;6182164;28;20310;-67
2022/03/08 02:24:25;;;;;;;11.23;7.40;;;;;;;-4.42;76.71;98267.13;6182734;28;20243;-66
2022/03/08 02:27:27;;;;;;;12.17;7.83;;;;;;;-4.44;76.62;98272.28;6185114;28;20583;-68
2022/03/08 02:30:29;;;;;;;12.77;7.67;;;;;;;-4.46;76.65;98280.03;6194881;28;20236;-67
2022/03/08 02:33:31;;;;;;;14.73;9.03;;;;;;;-4.45;77.14;98278.31;6180121;28;20367;-67
2022/03/08 02:36:35;;;;;;;11.80;8.27;;;;;;;-4.42;76.78;98272.28;6194083;28;20940;-67
2022/03/08 02:39:39;;;;;;;12.70;8.90;;;;;;;-4.42;76.66;98275.69;6183275;28;20271;-68
2022/03/08 02:42:44;;;;;;;10.30;7.40;;;;;;;-4.46;77.07;98272.28;6179008;28;20244;-67
2022/03/08 02:45:46;;;;;;;10.60;7.60;;;;;;;-4.47;76.54;98268.00;6187355;28;20278;-67
2022/03/08 02:48:48;;;;;;;11.63;8.20;;;;;;;-4.46;77.08;98274.88;6180127;28;20231;-67
2022/03/08 02:51:50;;;;;;;13.17;8.47;;;;;;;-4.46;76.84;98280.03;6178149;28;20221;-67
2022/03/08 02:54:52;;;;;;;11.57;7.87;;;;;;;-4.40;76.88;98278.25;6179444;28;20233;-67
2022/03/08 02:57:55;;;;;;;13.07;8.33;;;;;;;-4.36;76.86;98278.19;6179230;28;20228;-68
2022/03/08 03:00:57;;;;;;;15.23;9.67;;;;;;;-4.31;76.85;98270.44;6179364;28;20224;-67
2022/03/08 03:03:59;;;;;;;14.23;10.10;;;;;;;-4.19;77.07;98267.69;6179357;28;20728;-67
2022/03/08 03:07:02;;;;;;;15.77;10.07;;;;;;;-4.13;77.49;98270.19;6179001;28;20732;-68
2022/03/08 03:10:17;;;;;;;13.10;9.27;;;;;;;-4.07;77.83;98274.41;6179960;28;20225;-68
2022/03/08 03:13:19;;;;;;;14.20;8.90;;;;;;;-3.98;76.83;98272.56;6192930;28;20233;-66
2022/03/08 03:16:21;;;;;;;14.50;9.70;;;;;;;-3.88;77.64;98276.72;6205933;28;20236;-66
2022/03/08 03:19:23;;;;;;;13.80;8.97;;;;;;;-3.83;77.03;98276.66;6182579;28;20723;-68
2022/03/08 03:22:25;;;;;;;13.93;10.07;;;;;;;-3.78;76.41;98280.88;6190400;28;20323;-67
2022/03/08 03:25:28;;;;;;;14.20;9.80;;;;;;;-3.76;77.48;98280.84;6192206;28;20236;-67
2022/03/08 03:28:29;;;;;;;14.27;9.10;;;;;;;-3.72;76.43;98279.97;6178751;28;20243;-66
2022/03/08 03:31:31;;;;;;;11.10;7.93;;;;;;;-3.69;76.24;98273.91;6177191;28;20237;-67
2022/03/08 03:34:34;;;;;;;13.60;9.47;;;;;;;-3.64;75.83;98288.44;6192199;28;20293;-66
2022/03/08 03:37:36;;;;;;;13.93;9.13;;;;;;;-3.56;75.96;98294.31;6178451;28;20233;-66
2022/03/08 03:40:38;;;;;;;13.10;9.10;;;;;;;-3.50;75.14;98290.81;6178422;28;20735;-67
2022/03/08 03:43:40;;;;;;;11.63;8.97;;;;;;;-3.42;75.11;98299.28;6178265;28;20235;-67
2022/03/08 03:46:42;;;;;;;12.97;9.13;;;;;;;-3.36;75.03;98305.22;6192979;28;20443;-66
2022/03/08 03:49:44;;;;;;;13.33;9.73;;;;;;;-3.30;75.05;98303.44;6178465;28;20225;-67
2022/03/08 03:52:46;;;;;;;12.57;8.40;;;;;;;-3.23;74.75;98305.03;6178390;28;20220;-66
2022/03/08 03:55:48;;;;;;;12.27;8.00;;;;;;;-3.17;75.20;98303.19;6177368;28;20240;-68
2022/03/08 03:58:50;;;;;;;13.67;9.03;;;;;;;-3.09;74.87;98306.50;6178706;28;20233;-67
2022/03/08 04:01:52;;;;;;;13.10;9.37;;;;;;;-2.99;74.75;98309.78;6176457;28;20772;-66
2022/03/08 04:04:54;;;;;;;13.30;9.47;;;;;;;-2.89;74.67;98297.56;6178153;28;20294;-66
2022/03/08 04:07:57;;;;;;;13.13;9.80;;;;;;;-2.82;74.82;98296.59;6177621;28;20230;-66
2022/03/08 04:10:59;;;;;;;11.13;8.57;;;;;;;-2.75;75.45;98295.63;6179056;28;20468;-66
2022/03/08 04:14:01;;;;;;;13.47;9.80;;;;;;;-2.76;74.84;98291.31;6176986;28;20383;-67
2022/03/08 04:17:04;;;;;;;13.97;9.53;;;;;;;-2.78;74.74;98280.16;6187464;28;20229;-67
2022/03/08 04:20:07;;;;;;;13.67;9.70;;;;;;;-2.66;75.28;98277.38;6192781;28;20320;-67
2022/03/08 04:23:09;;;;;;;14.60;9.90;;;;;;;-2.49;74.58;98279.63;6206892;28;20691;-67
2022/03/08 04:26:12;;;;;;;13.03;9.33;;;;;;;-2.28;72.96;98274.03;6177684;28;20704;-67
2022/03/08 04:29:14;;;;;;;13.67;9.97;;;;;;;-2.14;71.89;98276.38;6192727;28;20239;-67
2022/03/08 04:32:16;;;;;;;12.40;8.63;;;;;;;-2.07;71.86;98268.44;6177842;28;20229;-66
2022/03/08 04:35:18;;;;;;;11.90;8.63;;;;;;;-2.00;72.03;98276.94;6177937;28;20310;-67
2022/03/08 04:38:20;;;;;;;12.53;8.60;;;;;;;-1.94;70.60;98275.06;6178824;28;20611;-67
2022/03/08 04:41:22;;;;;;;15.73;9.03;;;;;;;-1.87;70.16;98268.03;6177847;28;20379;-68
2022/03/08 04:44:24;;;;;;;18.40;9.70;;;;;;;-1.86;70.27;98272.31;6178500;28;20348;-67
2022/03/08 04:47:27;;;;;;;12.63;8.47;;;;;;;-1.90;70.82;98270.69;6194973;28;20711;-65
2022/03/08 04:50:30;;;;;;;11.17;8.40;;;;;;;-1.95;69.65;98272.50;6177324;28;20233;-66
2022/03/08 04:53:31;;;;;;;10.83;7.93;;;;;;;-2.00;69.55;98264.88;6177868;28;20646;-66
2022/03/08 04:56:34;;;;;;;15.30;9.20;;;;;;;-2.10;69.78;98270.25;6177905;28;20693;-66
2022/03/08 04:59:36;;;;;;;11.10;8.77;;;;;;;-2.20;70.46;98271.34;6176801;28;20233;-66
2022/03/08 05:02:39;;;;;;;13.00;9.30;;;;;;;-2.41;71.15;98273.47;6177100;28;20225;-66
2022/03/08 05:05:41;;;;;;;12.17;8.00;;;;;;;-2.58;72.35;98272.91;6177165;28;20225;-66
2022/03/08 05:08:44;;;;;;;12.43;8.17;;;;;;;-2.72;71.90;98270.59;6177496;28;20237;-66
2022/03/08 05:11:45;;;;;;;14.17;8.40;;;;;;;-2.83;72.10;98266.50;6191893;28;20228;-66
2022/03/08 05:14:47;;;;;;;11.83;8.47;;;;;;;-2.93;72.67;98277.84;6180001;28;20669;-67
2022/03/08 05:17:49;;;;;;;13.00;8.93;;;;;;;-3.01;73.28;98280.56;6204687;28;20224;-66
2022/03/08 05:20:51;;;;;;;10.97;8.00;;;;;;;-3.12;73.18;98270.44;6179959;28;20230;-67
2022/03/08 05:23:53;;;;;;;13.27;8.30;;;;;;;-3.22;72.92;98279.19;6183971;28;20450;-66
2022/03/08 05:26:55;;;;;;;11.83;8.73;;;;;;;-3.29;73.43;98271.59;6182284;28;20324;-65
2022/03/08 05:29:57;;;;;;;11.27;9.10;;;;;;;-3.35;73.65;98278.53;6171317;28;20271;-63
2022/03/08 05:33:00;;;;;;;13.80;8.70;;;;;;;-3.43;74.22;98275.22;6181740;28;20826;-66
2022/03/08 05:36:02;;;;;;;11.50;8.57;;;;;;;-3.45;74.18;98273.53;6167924;28;20902;-63
2022/03/08 05:39:05;;;;;;;13.30;9.03;;;;;;;-3.47;73.92;98276.13;6181404;28;20233;-63
2022/03/08 05:42:07;;;;;;;12.53;9.10;;;;;;;-3.48;73.61;98276.16;6182173;28;20209;-63
2022/03/08 05:45:10;;;;;;;14.87;9.60;;;;;;;-3.51;73.60;98281.38;6183526;28;20228;-63
2022/03/08 05:48:12;;;;;;;13.23;9.07;;;;;;;-3.53;74.18;98283.13;6182579;28;20835;-63
2022/03/08 05:51:15;;;;;;;13.43;8.70;;;;;;;-3.56;74.54;98278.00;6180447;28;20643;-63
2022/03/08 05:54:17;;;;;;;15.00;9.23;;;;;;;-3.57;74.79;98278.88;6181214;28;20232;-64
2022/03/08 05:57:19;;;;;;;11.80;8.43;;;;;;;-3.56;74.06;98281.44;6179921;28;20244;-64
2022/03/08 06:00:21;;;;;;;11.57;9.03;;;;;;;-3.60;74.87;98284.94;6184818;28;20596;-64
2022/03/08 06:03:23;;;;;;;16.13;9.83;;;;;;;-3.57;75.33;98278.88;6185205;28;20229;-64
2022/03/08 06:06:25;;;;;;;14.07;9.77;;;;;;;-3.42;75.08;98282.09;6186182;28;20228;-64
2022/03/08 06:09:27;;;;;;;13.63;9.00;;;;;;;-3.43;74.80;98282.09;6185439;28;20236;-63
2022/03/08 06:12:29;;;;;;;14.37;9.67;;;;;;;-3.42;75.18;98288.97;6180530;28;20229;-64
2022/03/08 06:15:31;;;;;;;14.63;9.43;;;;;;;-3.23;74.19;98274.06;6188122;28;20228;-64
2022/03/08 06:18:33;;;;;;;14.03;9.37;;;;;;;-3.05;73.60;98281.50;6186963;28;20696;-64
2022/03/08 06:21:35;;;;;;;14.23;9.40;;;;;;;-3.04;73.32;98281.47;6183914;28;20213;-64
2022/03/08 06:24:37;;;;;;;12.20;8.53;;;;;;;-3.05;73.54;98284.06;6192316;28;20225;-64
2022/03/08 06:27:39;;;;;;;11.23;8.90;;;;;;;-2.97;73.81;98274.47;6178335;28;20743;-65
2022/03/08 06:30:41;;;;;;;15.83;8.63;;;;;;;-2.78;72.93;98281.00;6179359;28;20235;-64
2022/03/08 06:33:43;;;;;;;11.97;8.77;;;;;;;-2.63;71.71;98278.16;6179668;28;20233;-64
2022/03/08 06:36:45;;;;;;;11.27;8.23;;;;;;;-2.54;71.57;98282.31;6179017;28;20236;-64
2022/03/08 06:39:48;;;;;;;12.73;8.77;;;;;;;-2.54;71.48;98277.16;6178937;28;20233;-64
2022/03/08 06:42:50;;;;;;;11.97;8.60;;;;;;;-2.44;70.35;98278.69;6179391;28;20645;-64
2022/03/08 06:45:52;;;;;;;12.87;8.30;;;;;;;-2.30;70.08;98273.25;6187465;28;20226;-64
2022/03/08 06:48:54;;;;;;;14.43;9.30;;;;;;;-2.13;68.94;98270.31;6189308;28;20241;-64
2022/03/08 06:51:57;;;;;;;14.73;9.57;;;;;;;-2.06;68.70;98271.88;6179130;28;20724;-64
2022/03/08 06:54:59;;;;;;;12.37;8.80;;;;;;;-2.00;68.31;98282.13;6178539;28;20240;-64
2022/03/08 06:58:03;;;;;;;12.83;8.60;;;;;;;-1.89;67.95;98290.47;6179028;28;20232;-64
2022/03/08 07:01:05;;;;;;;12.03;8.37;;;;;;;-1.90;68.12;98281.03;6178591;28;20225;-65
2022/03/08 07:04:07;;;;;;;14.13;8.37;;;;;;;-1.97;68.53;98290.66;6178589;28;20477;-65
2022/03/08 07:07:09;;;;;;;12.77;8.83;;;;;;;-1.87;68.32;98288.72;6178477;28;20229;-65
2022/03/08 07:10:11;;;;;;;11.90;8.47;;;;;;;-1.83;68.67;98285.19;6178020;28;20229;-63
2022/03/08 07:13:13;;;;;;;12.53;8.67;;;;;;;-1.74;67.64;98291.91;6178550;28;20252;-63
2022/03/08 07:16:18;;;;;;;12.77;8.70;;;;;;;-1.50;66.70;98294.78;6190067;28;20321;-63
2022/03/08 07:19:20;;;;;;;12.93;8.23;;;;;;;-1.39;66.16;98301.47;6193185;28;20841;-63
2022/03/08 07:22:22;;;;;;;13.67;8.50;;;;;;;-1.17;65.52;98303.53;6183900;28;20229;-63
2022/03/08 07:25:24;;;;;;;10.77;7.93;;;;;;;-1.14;65.78;98305.19;6192566;28;20272;-65
2022/03/08 07:28:26;;;;;;;12.23;8.83;;;;;;;-1.16;66.46;98301.78;6192774;28;20274;-65
2022/03/08 07:31:33;;;;;;;9.53;7.10;;;;;;;-1.04;65.20;98305.81;6177826;28;20335;-64
2022/03/08 07:34:36;;;;;;;11.60;7.83;;;;;;;-0.84;64.16;98308.78;6177907;28;20715;-64
2022/03/08 07:37:38;;;;;;;10.33;7.53;;;;;;;-0.56;62.56;98312.38;6177337;28;20244;-64
2022/03/08 07:40:40;;;;;;;12.37;8.20;;;;;;;-0.29;61.23;98315.97;6177734;28;20233;-64
2022/03/08 07:43:42;;;;;;;12.27;8.10;;;;;;;-0.11;60.76;98309.47;6178463;28;20229;-64
2022/03/08 07:46:44;;;;;;;13.30;8.10;;;;;;;-0.01;60.85;98310.91;6185650;28;20923;-64
2022/03/08 07:49:46;;;;;;;11.60;7.40;;;;;;;-0.01;60.94;98306.56;6178167;28;20236;-64
2022/03/08 07:52:53;;;;;;;12.43;8.97;;;;;;;0.06;60.38;98308.97;6177994;28;20221;-63
2022/03/08 07:55:55;;;;;;;9.17;6.93;;;;;;;0.20;60.40;98309.44;6191997;28;20650;-63
2022/03/08 07:58:57;;;;;;;11.67;7.70;;;;;;;0.39;60.12;98308.00;6178946;28;20233;-63
2022/03/08 08:01:59;;;;;;;13.60;8.17;;;;;;;0.55;58.64;98306.66;6178686;28;20257;-64
2022/03/08 08:05:02;;;;;;;10.07;7.07;;;;;;;0.84;58.18;98299.69;6177918;28;20221;-64
2022/03/08 08:08:05;;;;;;;11.73;7.27;;;;;;;1.02;57.55;98296.50;6177641;28;20237;-64
2022/03/08 08:11:07;;;;;;;10.13;7.17;;;;;;;1.28;57.04;98296.53;6177406;28;20239;-64
2022/03/08 08:14:09;;;;;;;10.63;6.73;;;;;;;1.60;55.90;98291.97;6178061;28;20743;-64
2022/03/08 08:17:11;;;;;;;10.17;7.13;;;;;;;1.93;55.61;98303.78;6193056;28;20229;-64
2022/03/08 08:20:13;;;;;;;8.87;6.60;;;;;;;2.10;54.07;98296.22;6177832;28;20243;-64
2022/03/08 08:23:15;;;;;;;11.30;7.13;;;;;;;2.48;53.28;98284.38;6209812;28;20228;-64
2022/03/08 08:26:17;;;;;;;9.13;6.90;;;;;;;2.85;52.89;98298.56;6181262;28;20229;-63
2022/03/08 08:29:19;;;;;;;11.40;7.33;;;;;;;2.77;51.81;98298.03;6177749;28;20236;-64
2022/03/08 08:32:21;;;;;;;10.67;7.17;;;;;;;2.93;52.37;98293.91;6177411;28;20654;-64
2022/03/08 08:35:23;;;;;;;11.83;7.83;;;;;;;3.06;51.74;98294.25;6178275;28;20233;-64
2022/03/08 08:38:25;;;;;;;9.27;6.30;;;;;;;3.62;51.22;98292.75;6177171;28;20237;-64
2022/03/08 08:41:27;;;;;;;7.40;5.63;;;;;;;4.37;50.37;98290.31;6178604;28;20457;-64
2022/03/08 08:44:29;;;;;;;8.50;6.37;;;;;;;4.64;47.83;98284.72;6177384;28;20225;-64
2022/03/08 08:47:31;;;;;;;9.63;6.00;;;;;;;4.94;47.54;98287.63;6198968;28;20234;-64
2022/03/08 08:50:35;;;;;;;10.57;6.27;;;;;;;4.73;47.45;98297.34;6183619;28;20666;-64
2022/03/08 08:53:36;;;;;;;11.33;6.60;;;;;;;4.90;47.60;98294.78;6181416;28;20239;-64
2022/03/08 08:56:39;;;;;;;10.83;6.60;;;;;;;4.43;47.42;98297.00;6182306;28;20700;-66
2022/03/08 08:59:41;;;;;;;9.17;6.60;;;;;;;4.42;47.91;98297.91;6182716;28;20231;-64
2022/03/08 09:02:44;;;;;;;9.97;6.40;;;;;;;4.66;47.35;98298.56;6182898;28;20234;-64
2022/03/08 09:05:47;;;;;;;8.40;5.60;;;;;;;5.16;47.14;98283.06;6181972;28;20726;-64
2022/03/08 09:08:49;;;;;;;9.90;6.73;;;;;;;5.63;45.28;98277.22;6179438;28;20633;-64
2022/03/08 09:11:51;;;;;;;8.17;6.07;;;;;;;5.62;45.44;98272.91;6181162;28;20239;-64
2022/03/08 09:14:53;;;;;;;6.80;5.53;;;;;;;5.80;45.47;98280.66;6181258;28;20739;-64
2022/03/08 09:17:55;;;;;;;8.83;5.57;;;;;;;6.01;44.36;98263.03;6185139;28;20244;-64
2022/03/08 09:20:57;;;;;;;8.30;5.97;;;;;;;5.95;44.47;98267.75;6180279;28;20610;-64
2022/03/08 09:24:00;;;;;;;7.67;5.30;;;;;;;5.93;44.28;98259.97;6190455;28;20236;-64
2022/03/08 09:27:03;;;;;;;7.77;5.30;;;;;;;6.15;44.28;98259.69;6180638;28;20359;-64
2022/03/08 09:30:06;;;;;;;14.40;5.97;;;;;;;6.17;43.89;98256.06;6180474;28;20609;-65
2022/03/08 09:33:08;;;;;;;9.87;6.07;;;;;;;6.28;43.25;98252.88;6181380;28;20699;-65
2022/03/08 09:36:10;;;;;;;10.00;6.00;;;;;;;6.55;42.37;98255.75;6180784;28;20205;-64
2022/03/08 09:39:12;;;;;;;9.60;6.23;;;;;;;6.62;42.95;98249.25;6180421;28;20700;-64
2022/03/08 09:42:20;;;;;;;9.23;6.57;;;;;;;7.02;42.02;98263.59;6197060;28;20226;-64
2022/03/08 09:45:22;;;;;;;11.17;7.20;;;;;;;7.08;41.95;98259.78;6184289;28;20708;-64
2022/03/08 09:48:24;;;;;;;10.07;6.47;;;;;;;6.97;42.09;98257.78;6188344;28;20447;-65
2022/03/08 09:51:26;;;;;;;9.60;7.07;;;;;;;6.73;42.30;98259.13;6180626;28;20680;-64
2022/03/08 09:54:29;;;;;;;7.53;5.80;;;;;;;7.09;41.16;98257.06;6180230;28;20256;-64
2022/03/08 09:57:32;;;;;;;9.67;6.00;;;;;;;7.58;40.47;98251.63;6199090;28;20647;-63
2022/03/08 10:00:35;;;;;;;6.87;5.83;;;;;;;7.87;40.91;98255.13;6179613;28;20238;-65
2022/03/08 10:03:40;;;;;;;10.93;6.17;;;;;;;8.21;39.59;98252.13;6180369;28;20229;-64
2022/03/08 10:06:44;;;;;;;9.07;6.53;;;;;;;7.61;39.85;98244.38;6179872;28;20224;-65
2022/03/08 10:09:57;;;;;;;8.00;6.10;;;;;;;7.84;40.33;98248.25;6179519;28;20230;-65
2022/03/08 10:12:59;;;;;;;9.53;7.20;;;;;;;7.78;40.50;98256.53;6180376;28;20245;-64
2022/03/08 10:16:10;;;;;;;9.53;6.93;;;;;;;7.92;40.25;98251.28;6189424;28;20228;-64
2022/03/08 10:19:13;;;;;;;9.57;6.03;;;;;;;8.47;38.99;98261.06;6189873;28;20705;-64
2022/03/08 10:22:25;;;;;;;10.63;6.07;;;;;;;8.32;38.57;98254.97;6188987;28;20378;-65
2022/03/08 10:25:30;;;;;;;9.00;5.73;;;;;;;8.22;38.70;98253.81;6195230;28;20710;-64
2022/03/08 10:28:43;;;;;;;5.90;5.07;;;;;;;8.30;38.04;98245.44;6179170;28;20236;-64
2022/03/08 10:31:47;;;;;;;9.97;5.40;;;;;;;8.14;39.17;98250.81;6185608;28;20771;-64
2022/03/08 10:34:54;;;;;;;9.73;5.37;;;;;;;7.90;39.02;98257.56;6181029;28;20236;-64
2022/03/08 10:37:58;;;;;;;8.20;5.53;;;;;;;7.41;39.38;98249.94;6177085;28;20240;-65
2022/03/08 10:41:17;;;;;;;8.53;5.60;;;;;;;6.94;40.14;98260.56;6179835;28;20236;-64
2022/03/08 10:44:34;;;;;;;7.10;5.00;;;;;;;6.43;41.99;98262.50;6178866;28;20722;-64
2022/03/08 10:47:47;;;;;;;7.13;4.50;;;;;;;6.98;40.20;98254.22;6182171;28;20465;-65
2022/03/08 10:50:49;;;;;;;8.63;5.23;;;;;;;7.32;39.20;98251.34;6178615;28;20264;-64
2022/03/08 10:53:52;;;;;;;6.13;5.37;;;;;;;7.57;38.10;98249.91;6179295;28;20232;-64
2022/03/08 10:56:55;;;;;;;7.37;4.97;;;;;;;6.98;39.30;98246.34;6178318;28;20613;-65
2022/03/08 10:59:57;;;;;;;7.90;5.03;;;;;;;6.54;40.20;98257.53;6178792;28;20733;-64
2022/03/08 11:03:00;;;;;;;8.20;5.30;;;;;;;6.22;40.21;98247.94;6179525;28;20236;-64
2022/03/08 11:06:05;;;;;;;10.43;5.43;;;;;;;6.71;40.93;98251.34;6177961;28;20233;-64
2022/03/08 11:09:08;;;;;;;8.17;4.50;;;;;;;7.35;38.80;98251.16;6179720;28;20285;-64
2022/03/08 11:12:11;;;;;;;4.97;3.80;;;;;;;6.48;36.94;98251.78;6183233;28;20223;-64
2022/03/08 11:15:16;;;;;;;5.17;3.47;;;;;;;6.46;38.56;98269.38;6185100;28;20220;-64
2022/03/08 11:18:19;;;;;;;5.43;3.70;;;;;;;6.29;37.85;98259.78;6185860;28;20379;-66
2022/03/08 11:21:21;;;;;;;6.63;4.13;;;;;;;6.95;37.22;98259.63;6180215;28;20233;-64
2022/03/08 11:24:25;;;;;;;4.83;3.53;;;;;;;7.93;35.84;98258.22;6191977;28;20833;-64
2022/03/08 11:27:27;;;;;;;6.10;4.13;;;;;;;7.97;35.82;98256.25;6178645;28;20704;-64
2022/03/08 11:30:54;;;;;;;6.17;4.50;;;;;;;8.12;35.75;98253.53;6177838;28;20231;-65
2022/03/08 11:34:12;;;;;;;6.17;4.17;;;;;;;7.80;35.66;98241.50;6177715;28;20239;-65
2022/03/08 12:37:05;;;;;;;3.83;3.23;;;;;;;8.37;33.31;98188.94;4286524;28;20244;-65
2022/03/08 12:40:12;;;;;;;6.20;3.20;;;;;;;7.54;35.82;98187.06;6143732;28;20231;-65
2022/03/08 12:43:14;;;;;;;5.63;3.50;;;;;;;6.86;36.33;98194.56;6158398;28;20734;-65
2022/03/08 12:46:18;;;;;;;5.33;3.40;;;;;;;6.41;37.55;98190.97;6166932;28;20280;-65
2022/03/08 12:49:22;;;;;;;5.17;3.67;;;;;;;6.80;37.81;98180.00;6157544;28;20237;-65
2022/03/08 12:52:26;;;;;;;3.97;2.90;;;;;;;7.54;35.39;98163.41;6158157;28;20239;-65
2022/03/08 12:55:32;;;;;;;3.70;3.10;;;;;;;7.46;35.02;98165.66;6169752;28;20244;-65
2022/03/08 12:58:39;;;;;;;4.83;3.57;;;;;;;6.76;35.91;98178.50;6181622;28;20378;-65
2022/03/08 13:01:44;;;;;;;5.30;3.83;;;;;;;6.12;37.40;98176.00;6181539;28;20857;-65
2022/03/08 13:04:47;;;;;;;5.67;4.07;;;;;;;6.55;38.07;98170.06;6181979;28;20287;-65
2022/03/08 13:07:54;;;;;;;7.43;4.17;;;;;;;7.52;36.11;98163.50;6181947;28;20461;-64
2022/03/08 13:10:59;;;;;;;5.23;3.73;;;;;;;8.17;35.20;98165.66;6196167;28;20231;-66
2022/03/08 13:14:21;;;;;;;4.10;3.33;;;;;;;8.37;33.48;98145.09;6181036;28;20248;-64
2022/03/08 13:17:29;;;;;;;7.63;3.57;;;;;;;8.78;32.49;98152.91;6198653;28;20229;-65
2022/03/08 13:20:40;;;;;;;6.63;3.87;;;;;;;8.48;33.31;98147.03;6181599;28;20586;-64
2022/03/08 13:23:46;;;;;;;5.30;3.77;;;;;;;9.19;32.13;98152.78;6181375;28;20243;-64
2022/03/08 13:27:02;;;;;;;5.23;3.80;;;;;;;10.07;31.45;98142.38;6181254;28;20238;-64
2022/03/08 13:30:26;;;;;;;6.97;4.13;;;;;;;11.77;27.69;98143.72;6180175;28;20230;-64
2022/03/08 13:33:29;;;;;;;7.27;3.87;;;;;;;12.90;26.85;98135.47;6156216;28;20269;-64
2022/03/08 13:36:32;;;;;;;6.17;3.93;;;;;;;14.32;24.83;98131.28;6151226;28;20240;-65
2022/03/08 13:39:44;;;;;;;5.63;4.07;;;;;;;14.42;25.18;98137.50;6157945;28;20359;-64
2022/03/08 13:42:46;;;;;;;7.00;4.20;;;;;;;17.45;22.00;98127.25;6157057;28;20774;-64
2022/03/08 13:46:14;;;;;;;6.10;4.17;;;;;;;15.88;22.74;98134.69;6167740;28;20242;-64
2022/03/08 13:49:19;;;;;;;7.90;4.80;;;;;;;11.48;27.54;98151.19;6169339;28;20238;-66
2022/03/08 13:52:24;;;;;;;5.90;4.20;;;;;;;12.03;27.77;98154.91;6157355;28;20709;-65
2022/03/08 13:55:28;;;;;;;7.03;4.37;;;;;;;14.71;23.34;98135.75;6155135;28;20730;-65
2022/03/08 13:58:41;;;;;;;6.50;5.13;;;;;;;15.07;23.37;98128.09;6155929;28;20294;-65
2022/03/08 14:01:58;;;;;;;6.50;4.60;;;;;;;14.23;24.50;98124.13;6156509;28;20699;-65
2022/03/08 14:05:06;;;;;;;5.63;4.27;;;;;;;14.80;24.90;98122.59;6132675;28;20719;-65
2022/03/08 14:08:08;;;;;;;6.43;4.37;;;;;;;16.91;21.43;98113.13;6155256;28;20253;-65
2022/03/08 14:11:13;;;;;;;7.47;4.80;;;;;;;16.79;21.31;98117.00;6155985;28;20646;-65
2022/03/08 14:14:25;;;;;;;7.47;4.57;;;;;;;13.56;25.54;98122.88;6156390;28;20237;-65
2022/03/08 14:17:31;;;;;;;8.07;5.30;;;;;;;12.57;26.72;98120.56;6162699;28;20237;-65
2022/03/08 14:20:41;;;;;;;7.27;4.60;;;;;;;12.05;27.28;98120.41;6156701;28;20240;-65
2022/03/08 14:23:43;;;;;;;7.10;5.03;;;;;;;9.63;29.81;98128.69;6168569;28;20229;-65
2022/03/08 14:26:58;;;;;;;5.60;4.17;;;;;;;8.09;32.86;98132.78;6169903;28;20219;-65
2022/03/08 14:30:01;;;;;;;7.87;4.80;;;;;;;7.41;33.82;98130.00;6156310;28;20706;-65
2022/03/08 14:33:07;;;;;;;6.07;4.30;;;;;;;7.03;34.88;98141.97;6178402;28;20778;-65
2022/03/08 14:36:29;;;;;;;7.27;4.90;;;;;;;6.75;35.82;98126.13;6155630;28;20256;-64
2022/03/08 14:39:40;;;;;;;6.83;4.70;;;;;;;6.61;36.23;98135.63;6155894;28;20244;-65
2022/03/08 14:42:42;;;;;;;7.43;4.43;;;;;;;6.28;36.84;98137.56;6155512;28;20229;-65
2022/03/08 14:45:44;;;;;;;5.63;4.33;;;;;;;6.16;37.00;98130.34;6167471;28;20236;-65
2022/03/08 14:49:06;;;;;;;7.40;4.90;;;;;;;6.04;37.38;98134.50;6182218;28;20771;-65
2022/03/08 14:52:31;;;;;;;6.30;4.53;;;;;;;5.85;37.60;98129.38;6179263;28;20274;-65
2022/03/08 14:55:32;;;;;;;5.73;4.60;;;;;;;5.85;38.02;98131.16;6178340;28;20249;-65
2022/03/08 14:58:34;;;;;;;6.27;4.57;;;;;;;5.80;38.05;98125.31;6179821;28;20765;-65
2022/03/08 15:01:38;;;;;;;6.43;4.40;;;;;;;5.72;37.57;98120.50;6178421;28;20233;-65
2022/03/08 15:04:41;;;;;;;7.70;4.67;;;;;;;5.71;38.85;98126.66;6178343;28;20325;-65
2022/03/08 15:07:43;;;;;;;7.40;4.47;;;;;;;5.60;37.80;98113.28;6178809;28;20217;-65
2022/03/08 15:10:45;;;;;;;9.13;5.07;;;;;;;5.62;38.67;98108.81;6178144;28;20704;-65
2022/03/08 15:13:47;;;;;;;9.17;4.23;;;;;;;5.66;38.55;98110.34;6178703;28;20236;-65
2022/03/08 15:16:49;;;;;;;6.07;4.43;;;;;;;5.65;38.14;98111.28;6194140;28;20236;-65
2022/03/08 15:19:51;;;;;;;8.50;4.37;;;;;;;5.55;38.43;98110.94;6182969;28;20240;-65
2022/03/08 15:22:54;;;;;;;6.20;3.77;;;;;;;5.57;38.03;98113.47;6178545;28;20233;-68